createdAt,value
2022-08-16T00:01:28.931Z,19.45
2022-08-16T00:04:01.596Z,19.54
2022-08-16T00:06:33.015Z,19.50
2022-08-16T00:09:01.100Z,19.31
2022-08-16T00:11:28.910Z,18.90
2022-08-16T00:13:58.492Z,19.25
2022-08-16T00:17:00.692Z,19.25
2022-08-16T00:19:22.333Z,19.13
2022-08-16T00:21:53.277Z,19.05
2022-08-16T00:24:32.498Z,19.03
2022-08-16T00:27:01.941Z,18.97
2022-08-16T00:29:32.047Z,18.91
2022-08-16T00:32:06.539Z,18.65
2022-08-16T00:34:44.550Z,18.51
2022-08-16T00:37:24.308Z,18.57
2022-08-16T00:39:58.173Z,18.41
2022-08-16T00:42:30.624Z,18.55
2022-08-16T00:45:08.299Z,18.59
2022-08-16T00:47:37.947Z,18.43
2022-08-16T00:50:11.347Z,18.69
2022-08-16T00:52:50.170Z,18.64
2022-08-16T00:55:22.863Z,18.41
2022-08-16T00:57:58.837Z,18.49
2022-08-16T01:00:32.854Z,18.31
2022-08-16T01:03:07.396Z,18.49
2022-08-16T01:05:41.977Z,18.33
2022-08-16T01:08:35.160Z,18.03
2022-08-16T01:11:02.448Z,18.11
2022-08-16T01:13:33.968Z,18.24
2022-08-16T01:16:10.099Z,18.01
2022-08-16T01:18:45.170Z,17.97
2022-08-16T01:21:22.251Z,17.97
2022-08-16T01:24:06.125Z,18.15
2022-08-16T01:26:57.723Z,18.07
2022-08-16T01:29:56.929Z,17.99
2022-08-16T01:32:31.499Z,17.77
2022-08-16T01:35:03.296Z,17.51
2022-08-16T01:37:39.364Z,17.47
2022-08-16T01:40:16.233Z,17.17
2022-08-16T01:42:48.088Z,17.55
2022-08-16T01:45:19.809Z,17.46
2022-08-16T01:47:51.021Z,17.47
2022-08-16T01:50:42.548Z,17.61
2022-08-16T01:53:11.895Z,17.28
2022-08-16T01:56:01.216Z,17.59
2022-08-16T01:58:33.339Z,17.33
2022-08-16T02:01:01.642Z,17.29
2022-08-16T02:03:30.982Z,17.36
2022-08-16T02:05:58.933Z,17.16
2022-08-16T02:08:33.670Z,17.22
2022-08-16T02:11:08.623Z,17.10
2022-08-16T02:13:37.020Z,17.05
2022-08-16T02:16:18.346Z,17.32
2022-08-16T02:18:48.358Z,17.42
2022-08-16T02:21:18.558Z,17.51
2022-08-16T02:24:00.173Z,17.57
2022-08-16T02:26:29.657Z,17.68
2022-08-16T02:29:02.696Z,17.77
2022-08-16T02:32:03.913Z,17.61
2022-08-16T02:34:20.831Z,17.68
2022-08-16T02:37:01.038Z,17.50
2022-08-16T02:39:30.275Z,17.39
2022-08-16T02:42:00.341Z,17.46
2022-08-16T02:44:28.660Z,17.29
2022-08-16T02:46:57.898Z,17.33
2022-08-16T02:49:32.226Z,16.97
2022-08-16T02:52:24.770Z,17.39
2022-08-16T02:55:00.545Z,17.50
2022-08-16T02:57:31.130Z,17.25
2022-08-16T02:59:59.997Z,17.22
2022-08-16T03:02:31.709Z,17.29
2022-08-16T03:05:02.523Z,16.97
2022-08-16T03:07:37.082Z,16.95
2022-08-16T03:10:07.578Z,16.81
2022-08-16T03:12:55.198Z,16.58
2022-08-16T03:15:26.260Z,16.72
2022-08-16T03:17:56.575Z,17.17
2022-08-16T03:20:32.465Z,17.11
2022-08-16T03:23:05.502Z,17.19
2022-08-16T03:25:43.967Z,16.82
2022-08-16T03:28:17.071Z,17.21
2022-08-16T03:30:45.923Z,17.03
2022-08-16T03:33:16.817Z,17.10
2022-08-16T03:35:59.181Z,16.86
2022-08-16T03:38:47.498Z,16.72
2022-08-16T03:41:25.251Z,16.85
2022-08-16T03:44:00.451Z,16.74
2022-08-16T03:46:47.597Z,16.81
2022-08-16T03:49:22.685Z,16.89
2022-08-16T03:51:53.375Z,16.74
2022-08-16T03:54:25.672Z,16.89
2022-08-16T03:56:58.609Z,16.69
2022-08-16T03:59:32.426Z,16.63
2022-08-16T04:02:12.609Z,16.75
2022-08-16T04:04:51.922Z,16.65
2022-08-16T04:07:20.065Z,16.57
2022-08-16T04:09:49.194Z,16.55
2022-08-16T04:12:53.292Z,16.42
2022-08-16T04:15:11.318Z,16.40
2022-08-16T04:17:49.114Z,16.55
2022-08-16T04:20:31.104Z,16.27
2022-08-16T04:23:05.318Z,16.37
2022-08-16T04:25:35.257Z,16.43
2022-08-16T04:28:51.870Z,16.43
2022-08-16T04:30:53.810Z,16.72
2022-08-16T04:33:27.077Z,16.34
2022-08-16T04:35:58.381Z,16.64
2022-08-16T04:38:27.693Z,16.67
2022-08-16T04:40:58.829Z,16.28
2022-08-16T04:43:28.359Z,16.62
2022-08-16T04:46:00.789Z,16.48
2022-08-16T04:48:33.881Z,16.48
2022-08-16T04:51:11.817Z,16.36
2022-08-16T04:53:48.771Z,16.26
2022-08-16T04:56:19.891Z,16.16
2022-08-16T04:58:48.846Z,16.14
2022-08-16T05:01:19.566Z,16.35
2022-08-16T05:04:01.064Z,16.55
2022-08-16T05:06:44.697Z,16.51
2022-08-16T05:09:22.904Z,16.54
2022-08-16T05:11:53.078Z,16.84
2022-08-16T05:14:45.832Z,16.76
2022-08-16T05:17:18.941Z,16.77
2022-08-16T05:19:58.032Z,16.85
2022-08-16T05:22:40.367Z,17.03
2022-08-16T05:25:15.788Z,17.09
2022-08-16T05:27:48.238Z,16.95
2022-08-16T05:30:34.401Z,17.08
2022-08-16T05:33:09.105Z,17.34
2022-08-16T05:35:55.261Z,17.51
2022-08-16T05:38:39.293Z,17.58
2022-08-16T05:41:13.982Z,17.19
2022-08-16T05:43:46.784Z,17.42
2022-08-16T05:46:30.946Z,17.58
2022-08-16T05:49:22.365Z,17.52
2022-08-16T05:51:55.679Z,17.57
2022-08-16T05:54:25.838Z,17.71
2022-08-16T05:56:57.946Z,18.01
2022-08-16T05:59:28.065Z,18.07
2022-08-16T06:01:57.715Z,18.08
2022-08-16T06:04:37.445Z,18.26
2022-08-16T06:07:24.255Z,18.36
2022-08-16T06:10:06.021Z,18.53
2022-08-16T06:12:36.103Z,18.68
2022-08-16T06:15:10.304Z,18.98
2022-08-16T06:17:43.810Z,19.18
2022-08-16T06:20:23.634Z,19.34
2022-08-16T06:22:58.872Z,19.46
2022-08-16T06:25:42.035Z,19.68
2022-08-16T06:28:16.606Z,19.67
2022-08-16T06:30:45.841Z,19.99
2022-08-16T06:33:19.507Z,20.14
2022-08-16T06:35:49.819Z,20.15
2022-08-16T06:38:32.670Z,20.50
2022-08-16T06:41:06.637Z,20.72
2022-08-16T06:43:42.711Z,20.77
2022-08-16T06:46:32.095Z,20.69
2022-08-16T06:49:05.943Z,21.17
2022-08-16T06:51:48.409Z,21.36
2022-08-16T06:54:22.969Z,21.45
2022-08-16T06:56:55.268Z,21.69
2022-08-16T06:59:25.598Z,21.58
2022-08-16T07:01:58.464Z,21.99
2022-08-16T07:04:32.570Z,22.21
2022-08-16T07:07:09.817Z,22.14
2022-08-16T07:09:39.669Z,22.22
2022-08-16T07:12:09.849Z,22.48
2022-08-16T07:14:42.224Z,22.80
2022-08-16T07:17:13.733Z,22.86
2022-08-16T07:20:03.260Z,23.22
2022-08-16T07:22:59.177Z,23.04
2022-08-16T07:25:40.482Z,23.18
2022-08-16T07:28:12.125Z,23.54
2022-08-16T07:30:49.596Z,23.58
2022-08-16T07:33:51.459Z,23.89
2022-08-16T07:36:24.330Z,23.45
2022-08-16T07:38:54.743Z,23.27
2022-08-16T07:41:23.913Z,24.01
2022-08-16T07:43:59.869Z,24.14
2022-08-16T07:46:39.693Z,24.72
2022-08-16T07:49:18.213Z,24.92
2022-08-16T07:51:46.591Z,25.12
2022-08-16T07:54:21.390Z,24.89
2022-08-16T07:57:11.304Z,24.70
2022-08-16T07:59:45.512Z,25.01
2022-08-16T08:02:19.851Z,25.53
2022-08-16T08:04:49.071Z,26.04
2022-08-16T08:07:17.551Z,25.64
2022-08-16T08:09:47.525Z,25.38
2022-08-16T08:12:32.533Z,26.31
2022-08-16T08:15:09.560Z,25.99
2022-08-16T08:17:43.198Z,26.31
2022-08-16T08:20:26.251Z,26.89
2022-08-16T08:23:00.601Z,26.04
2022-08-16T08:25:54.061Z,25.70
2022-08-16T08:28:20.626Z,26.65
2022-08-16T08:31:02.698Z,25.45
2022-08-16T08:33:34.910Z,25.50
2022-08-16T08:36:07.586Z,25.90
2022-08-16T08:38:44.888Z,26.41
2022-08-16T08:41:18.924Z,26.75
2022-08-16T08:43:51.562Z,27.14
2022-08-16T08:46:22.024Z,27.18
2022-08-16T08:49:02.173Z,26.69
2022-08-16T08:51:38.305Z,27.32
2022-08-16T08:54:14.388Z,27.74
2022-08-16T08:56:51.695Z,27.38
2022-08-16T08:59:47.003Z,27.65
2022-08-16T09:02:16.600Z,27.41
2022-08-16T09:04:52.658Z,27.07
2022-08-16T09:07:23.802Z,27.94
2022-08-16T09:10:06.099Z,28.19
2022-08-16T09:12:38.892Z,28.14
2022-08-16T09:15:13.523Z,26.83
2022-08-16T09:17:53.503Z,27.19
2022-08-16T09:20:29.353Z,27.55
2022-08-16T09:22:58.829Z,27.44
2022-08-16T09:25:34.217Z,28.04
2022-08-16T09:28:09.231Z,28.78
2022-08-16T09:30:44.092Z,29.04
2022-08-16T09:33:15.195Z,29.38
2022-08-16T09:35:45.955Z,28.24
2022-08-16T09:38:31.511Z,28.37
2022-08-16T09:41:01.912Z,26.38
2022-08-16T09:43:59.098Z,27.26
2022-08-16T09:46:48.698Z,28.00
2022-08-16T09:49:09.355Z,27.74
2022-08-16T09:51:40.076Z,27.61
2022-08-16T09:54:10.670Z,27.96
2022-08-16T09:56:52.395Z,27.75
2022-08-16T09:59:25.242Z,28.08
2022-08-16T10:01:54.493Z,28.09
2022-08-16T10:04:31.225Z,28.24
2022-08-16T10:07:15.098Z,29.03
2022-08-16T10:09:53.645Z,29.69
2022-08-16T10:12:42.686Z,29.56
2022-08-16T10:15:15.429Z,30.00
2022-08-16T10:18:01.521Z,30.46
2022-08-16T10:20:34.583Z,29.35
2022-08-16T10:23:07.287Z,30.31
2022-08-16T10:27:18.137Z,30.30
2022-08-16T10:28:28.922Z,30.31
2022-08-16T10:30:59.827Z,30.85
2022-08-16T10:33:29.242Z,30.29
2022-08-16T10:36:03.324Z,30.18
2022-08-16T10:38:36.669Z,30.27
2022-08-16T10:41:06.948Z,30.41
2022-08-16T10:43:36.216Z,30.69
2022-08-16T10:46:39.636Z,30.06
2022-08-16T10:48:56.073Z,29.40
2022-08-16T10:51:33.709Z,30.76
2022-08-16T10:54:29.544Z,30.74
2022-08-16T10:56:58.550Z,30.66
2022-08-16T10:59:38.222Z,30.11
2022-08-16T11:02:57.835Z,29.22
2022-08-16T11:05:06.693Z,29.37
2022-08-16T11:07:51.567Z,30.36
2022-08-16T11:19:05.591Z,30.29
2022-08-16T11:22:39.707Z,31.99
2022-08-16T11:24:41.852Z,32.23
2022-08-16T11:27:23.421Z,32.65
2022-08-16T11:29:55.293Z,31.52
2022-08-16T11:32:31.012Z,32.50
2022-08-16T11:35:15.909Z,32.58
2022-08-16T11:40:38.793Z,32.36
2022-08-16T11:43:10.183Z,32.17
2022-08-16T11:45:39.498Z,31.13
2022-08-16T11:48:10.949Z,30.22
2022-08-16T11:50:40.111Z,30.08
2022-08-16T11:53:08.599Z,30.81
2022-08-16T11:55:54.886Z,30.59
2022-08-16T11:59:06.916Z,31.03
2022-08-16T12:01:55.481Z,32.52
2022-08-16T12:04:23.296Z,32.47
2022-08-16T12:06:54.602Z,32.31
2022-08-16T12:09:24.019Z,32.23
2022-08-16T12:11:53.511Z,32.70
2022-08-16T12:14:22.933Z,32.69
2022-08-16T12:16:55.114Z,32.23
2022-08-16T12:19:35.353Z,31.37
2022-08-16T12:22:18.915Z,31.76
2022-08-16T12:24:51.898Z,32.13
2022-08-16T12:27:23.232Z,31.89
2022-08-16T12:29:52.227Z,31.23
2022-08-16T12:32:37.453Z,31.35
2022-08-16T12:35:09.683Z,31.80
2022-08-16T12:37:39.858Z,31.28
2022-08-16T12:40:23.872Z,30.47
2022-08-16T12:42:54.638Z,30.29
2022-08-16T12:45:28.504Z,30.06
2022-08-16T12:51:03.088Z,30.92
2022-08-16T12:53:34.668Z,30.67
2022-08-16T12:56:11.333Z,30.34
2022-08-16T12:58:48.733Z,30.11
2022-08-16T13:01:22.848Z,30.32
2022-08-16T13:04:03.489Z,30.47
2022-08-16T13:06:39.992Z,30.33
2022-08-16T13:09:20.862Z,30.52
2022-08-16T13:12:00.369Z,30.44
2022-08-16T13:14:34.375Z,30.00
2022-08-16T13:17:03.849Z,30.94
2022-08-16T13:20:03.307Z,30.32
2022-08-16T13:22:21.956Z,30.53
2022-08-16T13:24:51.516Z,30.90
2022-08-16T13:27:20.864Z,32.21
2022-08-16T13:30:11.370Z,31.95
2022-08-16T13:32:56.170Z,31.99
2022-08-16T13:35:25.250Z,32.09
2022-08-16T13:37:53.220Z,33.26
2022-08-16T13:40:24.143Z,32.86
2022-08-16T13:42:53.325Z,33.18
2022-08-16T13:45:21.651Z,34.29
2022-08-16T13:47:52.888Z,33.56
2022-08-16T13:50:31.202Z,33.42
2022-08-16T13:53:09.668Z,33.42
2022-08-16T13:55:38.961Z,33.11
2022-08-16T13:58:35.794Z,33.81
2022-08-16T14:00:57.699Z,34.36
2022-08-16T14:03:27.306Z,33.96
2022-08-16T14:05:58.577Z,33.58
2022-08-16T14:08:27.381Z,35.04
2022-08-16T14:10:56.917Z,35.06
2022-08-16T14:13:25.320Z,34.28
2022-08-16T14:15:53.292Z,35.46
2022-08-16T14:18:21.233Z,34.02
2022-08-16T14:20:51.252Z,34.35
2022-08-16T14:23:21.816Z,34.62
2022-08-16T14:25:54.102Z,35.10
2022-08-16T14:28:26.243Z,34.47
2022-08-16T14:30:54.431Z,34.27
2022-08-16T14:33:22.573Z,34.18
2022-08-16T14:35:51.006Z,33.66
2022-08-16T14:38:24.027Z,34.23
2022-08-16T14:40:55.238Z,34.27
2022-08-16T14:43:29.711Z,34.76
2022-08-16T14:45:59.088Z,33.31
2022-08-16T14:48:27.169Z,34.35
2022-08-16T14:50:55.398Z,34.97
2022-08-16T14:53:25.688Z,33.71
2022-08-16T14:55:54.476Z,33.64
2022-08-16T14:58:34.728Z,33.86
2022-08-16T15:01:10.156Z,33.75
2022-08-16T15:03:38.301Z,33.63
2022-08-16T15:06:13.265Z,32.36
2022-08-16T15:08:43.642Z,33.49
2022-08-16T15:11:13.776Z,33.29
2022-08-16T15:13:41.986Z,33.47
2022-08-16T15:16:11.320Z,33.80
2022-08-16T15:18:40.227Z,34.10
2022-08-16T15:21:08.955Z,33.96
2022-08-16T15:23:37.109Z,34.72
2022-08-16T15:26:09.475Z,34.17
2022-08-16T15:28:38.305Z,33.59
2022-08-16T15:31:09.222Z,33.23
2022-08-16T15:33:42.727Z,32.36
2022-08-16T15:36:18.044Z,33.14
2022-08-16T15:39:01.969Z,32.44
2022-08-16T15:42:11.106Z,32.34
2022-08-16T15:44:51.962Z,31.97
2022-08-16T15:47:25.787Z,32.76
2022-08-16T15:49:56.093Z,32.38
2022-08-16T15:52:30.123Z,32.69
2022-08-16T15:54:59.591Z,32.87
2022-08-16T15:57:30.290Z,32.54
2022-08-16T16:00:26.722Z,31.82
2022-08-16T16:03:02.118Z,31.84
2022-08-16T16:05:31.335Z,31.79
2022-08-16T16:08:12.232Z,31.31
2022-08-16T16:10:43.238Z,31.04
2022-08-16T16:13:12.638Z,31.10
2022-08-16T16:15:42.897Z,31.21
2022-08-16T16:18:12.194Z,31.52
2022-08-16T16:20:46.560Z,31.30
2022-08-16T16:23:17.016Z,31.54
2022-08-16T16:25:46.200Z,31.18
2022-08-16T16:29:08.784Z,31.17
2022-08-16T16:31:05.774Z,31.45
2022-08-16T16:33:38.364Z,31.02
2022-08-16T16:36:11.466Z,31.01
2022-08-16T16:38:45.248Z,30.67
2022-08-16T16:41:16.584Z,31.54
2022-08-16T16:43:45.871Z,31.64
2022-08-16T16:46:40.371Z,31.95
2022-08-16T16:49:05.842Z,32.10
2022-08-16T16:51:40.719Z,32.09
2022-08-16T16:54:12.834Z,31.86
2022-08-16T16:56:46.022Z,31.81
2022-08-16T16:59:18.265Z,31.66
2022-08-16T17:01:57.662Z,32.05
2022-08-16T17:04:31.786Z,31.77
2022-08-16T17:07:02.595Z,31.55
2022-08-16T17:09:30.993Z,31.43
2022-08-16T17:11:59.509Z,31.02
2022-08-16T17:14:33.889Z,30.47
2022-08-16T17:17:06.559Z,30.22
2022-08-16T17:19:41.142Z,30.28
2022-08-16T17:22:14.368Z,30.33
2022-08-16T17:24:44.900Z,30.10
2022-08-16T17:27:18.097Z,30.27
2022-08-16T17:29:47.519Z,30.52
2022-08-16T17:32:33.636Z,30.23
2022-08-16T17:35:13.980Z,30.18
2022-08-16T17:37:51.548Z,29.61
2022-08-16T17:40:41.042Z,29.85
2022-08-16T17:43:13.631Z,29.98
2022-08-16T17:45:42.712Z,29.77
2022-08-16T17:48:11.181Z,29.42
2022-08-16T17:50:39.725Z,29.35
2022-08-16T17:53:09.077Z,29.11
2022-08-16T17:55:39.285Z,29.41
2022-08-16T17:58:22.685Z,29.23
2022-08-16T18:00:54.067Z,29.27
2022-08-16T18:04:08.790Z,29.03
2022-08-16T18:06:18.655Z,29.39
2022-08-16T18:09:00.327Z,29.04
2022-08-16T18:11:40.696Z,29.07
2022-08-16T18:14:10.489Z,29.01
2022-08-16T18:16:40.387Z,29.06
2022-08-16T18:19:08.258Z,29.06
2022-08-16T18:21:53.651Z,29.00
2022-08-16T18:24:24.694Z,28.74
2022-08-16T18:26:52.661Z,28.36
2022-08-16T18:29:21.227Z,28.04
2022-08-16T18:31:50.918Z,27.74
2022-08-16T18:34:20.571Z,27.63
2022-08-16T18:36:48.578Z,27.50
2022-08-16T18:39:16.623Z,27.40
2022-08-16T18:41:47.720Z,27.31
2022-08-16T18:44:25.686Z,27.06
2022-08-16T18:46:54.931Z,26.90
2022-08-16T18:49:23.559Z,26.77
2022-08-16T18:51:51.689Z,26.72
2022-08-16T18:54:19.474Z,26.59
2022-08-16T18:56:57.519Z,26.44
2022-08-16T18:59:27.713Z,26.34
2022-08-16T19:02:00.507Z,26.23
2022-08-16T19:04:49.027Z,26.04
2022-08-16T19:07:31.114Z,25.98
2022-08-16T19:10:00.856Z,25.73
2022-08-16T19:12:38.619Z,25.45
2022-08-16T19:15:13.813Z,25.18
2022-08-16T19:17:42.669Z,24.92
2022-08-16T19:20:12.420Z,24.87
2022-08-16T19:25:47.156Z,24.79
2022-08-16T19:28:50.829Z,24.66
2022-08-16T19:31:13.133Z,24.30
2022-08-16T19:33:53.255Z,24.44
2022-08-16T19:36:30.984Z,24.47
2022-08-16T19:39:04.213Z,24.15
2022-08-16T19:41:34.489Z,23.79
2022-08-16T19:44:04.383Z,23.70
2022-08-16T19:46:32.524Z,23.71
2022-08-16T19:49:00.579Z,23.48
2022-08-16T19:51:28.947Z,23.62
2022-08-16T19:53:56.937Z,23.72
2022-08-16T19:56:26.662Z,23.76
2022-08-16T20:01:45.253Z,22.86
2022-08-16T20:04:13.601Z,23.01
2022-08-16T20:06:41.574Z,22.74
2022-08-16T20:09:10.463Z,22.64
2022-08-16T20:11:42.847Z,22.74
2022-08-16T20:14:10.664Z,22.72
2022-08-16T20:16:38.862Z,22.86
2022-08-16T20:19:08.387Z,22.83
2022-08-16T20:21:36.355Z,22.35
2022-08-16T20:24:31.949Z,22.14
2022-08-16T20:26:52.455Z,22.04
2022-08-16T20:29:20.574Z,22.11
2022-08-16T20:31:48.414Z,22.10
2022-08-16T20:34:17.607Z,21.87
2022-08-16T20:36:45.570Z,21.52
2022-08-16T20:39:14.291Z,21.59
2022-08-16T20:41:43.185Z,21.37
2022-08-16T20:44:11.886Z,21.35
2022-08-16T20:46:40.129Z,21.48
2022-08-16T20:49:09.219Z,21.83
2022-08-16T20:51:49.442Z,21.49
2022-08-16T20:54:19.190Z,21.70
2022-08-16T20:56:47.174Z,21.55
2022-08-16T20:59:15.029Z,21.08
2022-08-16T21:01:47.149Z,21.49
2022-08-16T21:04:18.786Z,20.95
2022-08-16T21:06:53.544Z,21.13
2022-08-16T21:09:23.312Z,20.64
2022-08-16T21:11:53.353Z,20.75
2022-08-16T21:14:21.362Z,20.69
2022-08-16T21:16:49.371Z,20.75
2022-08-16T21:19:17.176Z,20.56
2022-08-16T21:21:45.074Z,20.62
2022-08-16T21:24:14.942Z,20.68
2022-08-16T21:26:47.430Z,20.21
2022-08-16T21:29:24.961Z,20.18
2022-08-16T21:31:53.173Z,20.21
2022-08-16T21:34:20.964Z,19.84
2022-08-16T21:36:49.950Z,20.29
2022-08-16T21:39:19.151Z,20.54
2022-08-16T21:41:47.183Z,20.31
2022-08-16T21:44:15.074Z,19.99
2022-08-16T21:46:42.852Z,19.81
2022-08-16T21:49:10.666Z,19.68
2022-08-16T21:51:38.718Z,20.00
2022-08-16T21:54:06.891Z,20.05
2022-08-16T21:56:36.041Z,19.59
2022-08-16T21:59:10.697Z,19.85
2022-08-16T22:01:41.596Z,19.68
2022-08-16T22:04:38.494Z,19.68
2022-08-16T22:06:58.763Z,19.87
2022-08-16T22:09:26.621Z,19.40
2022-08-16T22:11:56.053Z,19.85
2022-08-16T22:14:23.862Z,19.80
2022-08-16T22:16:52.003Z,19.72
2022-08-16T22:19:19.766Z,19.59
2022-08-16T22:21:47.789Z,19.54
2022-08-16T22:24:15.958Z,19.41
2022-08-16T22:26:43.895Z,19.60
2022-08-16T22:29:15.028Z,19.71
2022-08-16T22:31:44.282Z,19.63
2022-08-16T22:34:12.633Z,19.63
2022-08-16T22:36:40.936Z,19.75
2022-08-16T22:39:11.818Z,19.51
2022-08-16T22:41:43.344Z,19.57
2022-08-16T22:44:11.500Z,19.25
2022-08-16T22:46:41.192Z,18.91
2022-08-16T22:49:09.440Z,19.09
2022-08-16T22:51:38.926Z,19.00
2022-08-16T22:54:34.373Z,19.17
2022-08-16T22:56:56.469Z,18.98
2022-08-16T22:59:25.305Z,18.98
2022-08-16T23:01:54.892Z,18.95
2022-08-16T23:04:24.794Z,18.48
2022-08-16T23:06:53.065Z,18.55
2022-08-16T23:09:21.653Z,18.09
2022-08-16T23:11:49.411Z,18.31
2022-08-16T23:14:17.937Z,18.36
2022-08-16T23:16:47.250Z,18.66
2022-08-16T23:19:17.347Z,18.39
2022-08-16T23:21:48.341Z,18.56
2022-08-16T23:24:19.293Z,18.57
2022-08-16T23:26:49.066Z,18.45
2022-08-16T23:29:24.667Z,18.48
2022-08-16T23:31:56.100Z,18.63
2022-08-16T23:34:27.073Z,18.77
2022-08-16T23:36:55.248Z,18.85
2022-08-16T23:39:23.206Z,18.91
2022-08-16T23:41:51.937Z,18.63
2022-08-16T23:44:56.225Z,18.27
2022-08-16T23:47:07.844Z,18.40
2022-08-16T23:49:56.773Z,18.64
2022-08-16T23:52:42.142Z,18.40
2022-08-16T23:55:13.026Z,18.28
2022-08-16T23:57:40.873Z,18.20
